createdAt,value
2023-05-08T00:00:03.998Z,100480.80
2023-05-08T00:02:37.776Z,100481.31
2023-05-08T00:05:10.723Z,100489.31
2023-05-08T00:07:43.780Z,100492.23
2023-05-08T00:10:16.692Z,100493.64
2023-05-08T00:12:49.546Z,100486.12
2023-05-08T00:15:22.530Z,100506.38
2023-05-08T00:17:55.347Z,100489.84
2023-05-08T00:20:29.323Z,100505.08
2023-05-08T00:23:01.972Z,100507.10
2023-05-08T00:25:34.972Z,100493.86
2023-05-08T00:28:07.756Z,100493.35
2023-05-08T00:30:41.177Z,100504.39
2023-05-08T00:33:14.085Z,100501.06
2023-05-08T00:35:47.234Z,100507.10
2023-05-08T00:38:20.204Z,100501.37
2023-05-08T00:40:52.974Z,100502.16
2023-05-08T00:43:27.690Z,100498.25
2023-05-08T00:46:02.854Z,100503.98
2023-05-08T00:48:37.226Z,100504.87
2023-05-08T00:51:11.731Z,100504.08
2023-05-08T00:53:45.811Z,100514.52
2023-05-08T00:56:19.058Z,100507.58
2023-05-08T00:58:52.275Z,100512.89
2023-05-08T01:01:25.774Z,100505.59
2023-05-08T01:03:58.612Z,100504.70
2023-05-08T01:06:32.074Z,100508.51
2023-05-08T01:09:05.867Z,100509.91
2023-05-08T01:11:43.805Z,100513.72
2023-05-08T01:14:50.879Z,100510.59
2023-05-08T01:17:39.373Z,100504.18
2023-05-08T01:20:41.122Z,100504.50
2023-05-08T01:23:47.602Z,100504.50
2023-05-08T01:26:58.984Z,100509.20
2023-05-08T01:29:59.147Z,100502.67
2023-05-08T01:32:44.542Z,100507.38
2023-05-08T01:35:27.784Z,100505.19
2023-05-08T01:38:21.744Z,100504.30
2023-05-08T01:41:04.766Z,100494.14
2023-05-08T01:44:00.513Z,100498.47
2023-05-08T01:46:35.245Z,100500.66
2023-05-08T01:49:14.145Z,100497.27
2023-05-08T01:52:00.542Z,100503.88
2023-05-08T01:54:38.197Z,100513.80
2023-05-08T01:57:12.457Z,100508.89
2023-05-08T01:59:44.402Z,100516.30
2023-05-08T02:02:17.559Z,100520.31
2023-05-08T02:04:53.341Z,100515.00
2023-05-08T02:07:27.157Z,100524.74
2023-05-08T02:10:00.629Z,100529.16
2023-05-08T02:12:37.550Z,100522.03
2023-05-08T02:15:13.182Z,100527.55
2023-05-08T02:17:48.505Z,100532.56
2023-05-08T02:20:22.809Z,100531.44
2023-05-08T02:22:54.717Z,100540.98
2023-05-08T02:25:28.218Z,100546.70
2023-05-08T02:28:01.071Z,100544.47
2023-05-08T02:30:34.077Z,100541.87
2023-05-08T02:33:09.643Z,100546.70
2023-05-08T02:35:45.310Z,100546.50
2023-05-08T02:38:21.138Z,100543.09
2023-05-08T02:40:57.947Z,100553.02
2023-05-08T02:43:31.005Z,100552.13
2023-05-08T02:46:32.812Z,100554.31
2023-05-08T02:49:16.608Z,100554.52
2023-05-08T02:51:55.835Z,100556.10
2023-05-08T02:55:01.352Z,100559.53
2023-05-08T02:57:45.148Z,100553.39
2023-05-08T03:00:30.366Z,100567.73
2023-05-08T03:03:23.275Z,100561.42
2023-05-08T03:06:01.088Z,100572.16
2023-05-08T03:08:36.441Z,100567.73
2023-05-08T03:11:12.908Z,100577.37
2023-05-08T03:13:47.885Z,100571.53
2023-05-08T03:16:23.620Z,100579.25
2023-05-08T03:19:02.982Z,100580.45
2023-05-08T03:21:37.601Z,100586.70
2023-05-08T03:24:11.803Z,100588.27
2023-05-08T03:26:45.278Z,100597.80
2023-05-08T03:29:19.374Z,100593.48
2023-05-08T03:31:53.815Z,100597.80
2023-05-08T03:34:26.997Z,100598.59
2023-05-08T03:37:00.159Z,100606.03
2023-05-08T03:39:35.268Z,100606.52
2023-05-08T03:42:08.471Z,100606.63
2023-05-08T03:44:41.756Z,100611.73
2023-05-08T03:47:15.253Z,100612.14
2023-05-08T03:49:49.688Z,100611.45
2023-05-08T03:52:23.133Z,100618.97
2023-05-08T03:54:56.070Z,100611.94
2023-05-08T03:57:33.538Z,100620.58
2023-05-08T04:00:23.270Z,100620.06
2023-05-08T04:03:06.336Z,100615.64
2023-05-08T04:05:44.328Z,100613.75
2023-05-08T04:08:33.245Z,100613.03
2023-05-08T04:11:28.997Z,100615.16
2023-05-08T04:14:06.755Z,100621.84
2023-05-08T04:16:43.552Z,100614.63
2023-05-08T04:19:21.645Z,100618.70
2023-05-08T04:21:58.342Z,100612.98
2023-05-08T04:24:33.024Z,100610.27
2023-05-08T04:27:06.889Z,100611.56
2023-05-08T04:29:39.979Z,100617.19
2023-05-08T04:32:14.300Z,100613.55
2023-05-08T04:34:47.722Z,100621.99
2023-05-08T04:37:34.617Z,100625.11
2023-05-08T04:40:10.264Z,100621.20
2023-05-08T04:42:45.694Z,100625.22
2023-05-08T04:45:19.810Z,100625.84
2023-05-08T04:47:52.661Z,100628.03
2023-05-08T04:50:26.378Z,100626.73
2023-05-08T04:52:59.500Z,100624.95
2023-05-08T04:55:32.774Z,100625.64
2023-05-08T04:58:05.881Z,100625.30
2023-05-08T05:00:38.907Z,100621.47
2023-05-08T05:03:11.930Z,100621.47
2023-05-08T05:05:45.016Z,100622.51
2023-05-08T05:08:19.117Z,100618.78
2023-05-08T05:10:51.900Z,100607.36
2023-05-08T05:13:24.915Z,100613.08
2023-05-08T05:15:59.443Z,100612.19
2023-05-08T05:18:33.721Z,100612.27
2023-05-08T05:21:06.769Z,100615.52
2023-05-08T05:23:39.890Z,100613.33
2023-05-08T05:26:12.980Z,100607.81
2023-05-08T05:28:46.601Z,100610.00
2023-05-08T05:31:19.990Z,100611.03
2023-05-08T05:33:52.895Z,100609.02
2023-05-08T05:36:25.973Z,100603.02
2023-05-08T05:38:58.769Z,100610.64
2023-05-08T05:41:31.684Z,100607.45
2023-05-08T05:44:04.718Z,100596.72
2023-05-08T05:46:38.306Z,100596.34
2023-05-08T05:49:12.580Z,100593.42
2023-05-08T05:51:45.736Z,100592.81
2023-05-08T05:54:20.010Z,100597.55
2023-05-08T05:56:52.906Z,100595.77
2023-05-08T05:59:25.980Z,100597.95
2023-05-08T06:01:59.232Z,100597.37
2023-05-08T06:04:32.475Z,100593.25
2023-05-08T06:07:05.721Z,100593.66
2023-05-08T06:09:38.658Z,100593.14
2023-05-08T06:12:12.413Z,100586.62
2023-05-08T06:14:45.086Z,100584.22
2023-05-08T06:17:17.922Z,100580.92
2023-05-08T06:19:52.830Z,100583.63
2023-05-08T06:22:27.104Z,100591.83
2023-05-08T06:25:00.150Z,100590.83
2023-05-08T06:27:33.283Z,100592.75
2023-05-08T06:30:10.982Z,100591.95
2023-05-08T06:32:44.261Z,100591.23
2023-05-08T06:35:20.150Z,100596.17
2023-05-08T06:37:52.889Z,100600.48
2023-05-08T06:40:26.612Z,100596.05
2023-05-08T06:42:59.704Z,100606.47
2023-05-08T06:45:32.597Z,100606.77
2023-05-08T06:48:05.654Z,100608.47
2023-05-08T06:50:43.050Z,100611.38
2023-05-08T06:53:15.983Z,100602.84
2023-05-08T06:55:49.311Z,100600.53
2023-05-08T06:58:22.322Z,100601.30
2023-05-08T07:00:55.163Z,100612.93
2023-05-08T07:03:28.132Z,100607.11
2023-05-08T07:06:01.013Z,100605.58
2023-05-08T07:08:33.881Z,100614.22
2023-05-08T07:11:09.161Z,100600.81
2023-05-08T07:13:43.675Z,100611.27
2023-05-08T07:16:17.174Z,100607.22
2023-05-08T07:18:50.092Z,100609.38
2023-05-08T07:21:22.930Z,100609.57
2023-05-08T07:23:56.544Z,100611.16
2023-05-08T07:26:29.405Z,100617.50
2023-05-08T07:29:02.209Z,100612.55
2023-05-08T07:31:35.034Z,100624.89
2023-05-08T07:34:07.966Z,100619.38
2023-05-08T07:36:40.688Z,100614.52
2023-05-08T07:39:13.553Z,100613.59
2023-05-08T07:41:49.109Z,100621.42
2023-05-08T07:44:21.044Z,100616.94
2023-05-08T07:46:54.045Z,100609.33
2023-05-08T07:49:27.364Z,100616.50
2023-05-08T07:52:00.096Z,100614.34
2023-05-08T07:54:33.453Z,100605.55
2023-05-08T07:57:06.467Z,100608.99
2023-05-08T07:59:39.561Z,100625.14
2023-05-08T08:02:12.433Z,100622.08
2023-05-08T08:04:46.010Z,100623.86
2023-05-08T08:07:18.917Z,100617.31
2023-05-08T08:09:51.812Z,100620.44
2023-05-08T08:12:24.588Z,100619.91
2023-05-08T08:14:57.534Z,100616.63
2023-05-08T08:17:30.322Z,100623.68
2023-05-08T08:20:03.403Z,100618.53
2023-05-08T08:22:37.336Z,100609.87
2023-05-08T08:25:11.462Z,100616.09
2023-05-08T08:27:43.852Z,100622.22
2023-05-08T08:30:17.981Z,100615.84
2023-05-08T08:32:51.175Z,100624.05
2023-05-08T08:35:25.527Z,100629.97
2023-05-08T08:37:58.067Z,100624.31
2023-05-08T08:40:30.997Z,100621.19
2023-05-08T08:43:04.124Z,100621.43
2023-05-08T08:45:38.416Z,100616.11
2023-05-08T08:48:16.456Z,100611.20
2023-05-08T08:50:50.266Z,100615.52
2023-05-08T08:53:28.511Z,100625.69
2023-05-08T08:56:02.801Z,100622.56
2023-05-08T08:58:47.565Z,100628.52
2023-05-08T09:01:21.900Z,100630.25
2023-05-08T09:03:54.965Z,100626.14
2023-05-08T09:06:29.282Z,100625.84
2023-05-08T09:09:02.133Z,100628.94
2023-05-08T09:11:35.972Z,100630.75
2023-05-08T09:14:09.795Z,100627.09
2023-05-08T09:16:42.823Z,100622.83
2023-05-08T09:19:17.314Z,100633.80
2023-05-08T09:21:51.475Z,100632.97
2023-05-08T09:24:24.836Z,100625.95
2023-05-08T09:26:57.532Z,100630.27
2023-05-08T09:29:30.384Z,100622.41
2023-05-08T09:32:04.404Z,100622.28
2023-05-08T09:34:37.308Z,100630.48
2023-05-08T09:37:14.390Z,100631.80
2023-05-08T09:39:48.051Z,100635.56
2023-05-08T09:42:21.420Z,100627.05
2023-05-08T09:44:55.837Z,100632.45
2023-05-08T09:47:27.721Z,100626.16
2023-05-08T09:50:09.469Z,100621.34
2023-05-08T09:52:47.813Z,100618.65
2023-05-08T09:55:20.847Z,100624.59
2023-05-08T09:57:59.274Z,100631.82
2023-05-08T10:00:32.379Z,100629.20
2023-05-08T10:03:06.288Z,100633.43
2023-05-08T10:05:40.993Z,100637.28
2023-05-08T10:08:27.073Z,100629.63
2023-05-08T10:11:17.242Z,100634.06
2023-05-08T10:13:50.622Z,100631.03
2023-05-08T10:16:25.198Z,100647.67
2023-05-08T10:19:03.491Z,100633.65
2023-05-08T10:21:38.703Z,100636.27
2023-05-08T10:24:16.767Z,100652.80
2023-05-08T10:27:06.949Z,100651.40
2023-05-08T10:29:35.948Z,100654.27
2023-05-08T10:32:11.615Z,100650.89
2023-05-08T10:34:45.621Z,100643.36
2023-05-08T10:37:20.008Z,100650.08
2023-05-08T10:39:53.421Z,100650.08
2023-05-08T10:42:27.183Z,100661.31
2023-05-08T10:45:00.118Z,100640.83
2023-05-08T10:47:54.801Z,100653.03
2023-05-08T10:50:44.386Z,100669.47
2023-05-08T10:53:42.295Z,100655.64
2023-05-08T10:56:15.666Z,100657.59
2023-05-08T10:58:48.468Z,100656.70
2023-05-08T11:01:21.974Z,100665.53
2023-05-08T11:03:58.756Z,100651.63
2023-05-08T11:06:50.644Z,100654.34
2023-05-08T11:09:30.822Z,100656.03
2023-05-08T11:12:26.433Z,100667.82
2023-05-08T11:15:10.533Z,100660.05
2023-05-08T11:17:45.559Z,100665.03
2023-05-08T11:20:18.377Z,100662.83
2023-05-08T11:22:51.491Z,100679.05
2023-05-08T11:25:29.162Z,100665.95
2023-05-08T11:28:10.985Z,100660.45
2023-05-08T11:30:45.802Z,100664.30
2023-05-08T11:33:19.341Z,100667.80
2023-05-08T11:36:20.305Z,100670.00
2023-05-08T11:39:13.230Z,100671.98
2023-05-08T11:41:47.762Z,100666.21
2023-05-08T11:44:25.815Z,100665.77
2023-05-08T11:47:00.160Z,100669.61
2023-05-08T11:49:32.531Z,100670.50
2023-05-08T11:52:06.556Z,100676.95
2023-05-08T11:54:38.687Z,100664.52
2023-05-08T11:57:11.693Z,100666.55
2023-05-08T11:59:45.210Z,100659.02
2023-05-08T12:02:18.208Z,100660.00
2023-05-08T12:04:51.232Z,100652.98
2023-05-08T12:07:24.134Z,100656.16
2023-05-08T12:09:57.087Z,100651.44
2023-05-08T12:12:45.663Z,100660.00
2023-05-08T12:15:19.023Z,100648.73
2023-05-08T12:18:03.158Z,100642.98
2023-05-08T12:20:36.283Z,100638.16
2023-05-08T12:23:10.458Z,100635.22
2023-05-08T12:25:42.492Z,100644.65
2023-05-08T12:28:15.523Z,100636.45
2023-05-08T12:30:49.031Z,100639.50
2023-05-08T12:33:22.766Z,100635.16
2023-05-08T12:35:57.109Z,100643.84
2023-05-08T12:38:30.806Z,100626.23
2023-05-08T12:41:06.875Z,100624.59
2023-05-08T12:43:40.172Z,100626.49
2023-05-08T12:46:14.914Z,100627.00
2023-05-08T12:48:48.017Z,100627.47
2023-05-08T12:51:21.074Z,100627.64
2023-05-08T12:53:53.981Z,100621.09
2023-05-08T12:56:26.927Z,100619.49
2023-05-08T12:59:01.632Z,100618.66
2023-05-08T13:01:35.843Z,100624.39
2023-05-08T13:04:12.076Z,100620.55
2023-05-08T13:06:46.356Z,100625.08
2023-05-08T13:09:23.630Z,100627.92
2023-05-08T13:11:56.827Z,100617.95
2023-05-08T13:14:30.278Z,100619.85
2023-05-08T13:17:03.171Z,100631.39
2023-05-08T13:19:36.287Z,100617.58
2023-05-08T13:22:09.214Z,100624.59
2023-05-08T13:24:42.044Z,100624.69
2023-05-08T13:27:15.665Z,100616.27
2023-05-08T13:29:48.696Z,100623.08
2023-05-08T13:32:21.533Z,100616.53
2023-05-08T13:34:57.699Z,100616.28
2023-05-08T13:37:29.270Z,100621.60
2023-05-08T13:40:02.358Z,100621.35
2023-05-08T13:42:35.771Z,100614.00
2023-05-08T13:45:12.369Z,100610.69
2023-05-08T13:47:47.037Z,100616.09
2023-05-08T13:50:22.058Z,100610.35
2023-05-08T13:52:55.362Z,100608.53
2023-05-08T13:55:28.345Z,100612.00
2023-05-08T13:58:01.358Z,100612.00
2023-05-08T14:00:34.916Z,100608.06
2023-05-08T14:03:07.848Z,100611.32
2023-05-08T14:05:40.978Z,100614.11
2023-05-08T14:08:13.843Z,100609.45
2023-05-08T14:10:47.010Z,100613.55
2023-05-08T14:13:20.536Z,100619.27
2023-05-08T14:15:53.430Z,100610.94
2023-05-08T14:18:26.384Z,100615.92
2023-05-08T14:20:59.181Z,100612.25
2023-05-08T14:23:32.417Z,100612.63
2023-05-08T14:26:06.142Z,100617.32
2023-05-08T14:28:39.377Z,100613.69
2023-05-08T14:31:12.250Z,100615.00
2023-05-08T14:33:45.052Z,100614.62
2023-05-08T14:36:18.311Z,100621.17
2023-05-08T14:38:51.818Z,100617.23
2023-05-08T14:41:26.925Z,100605.53
2023-05-08T14:44:00.313Z,100608.15
2023-05-08T14:46:33.837Z,100605.45
2023-05-08T14:49:06.906Z,100600.59
2023-05-08T14:51:40.340Z,100595.77
2023-05-08T14:54:13.302Z,100594.55
2023-05-08T14:56:47.685Z,100589.38
2023-05-08T14:59:20.830Z,100586.51
2023-05-08T15:01:53.781Z,100585.20
2023-05-08T15:04:26.722Z,100584.31
2023-05-08T15:06:59.760Z,100572.59
2023-05-08T15:09:32.916Z,100575.64
2023-05-08T15:12:05.991Z,100573.41
2023-05-08T15:14:39.522Z,100579.16
2023-05-08T15:17:12.283Z,100578.73
2023-05-08T15:19:46.363Z,100572.27
2023-05-08T15:22:19.369Z,100579.31
2023-05-08T15:24:52.311Z,100578.17
2023-05-08T15:27:25.401Z,100577.33
2023-05-08T15:29:58.346Z,100572.67
2023-05-08T15:32:31.565Z,100576.69
2023-05-08T15:35:05.061Z,100575.54
2023-05-08T15:37:38.781Z,100575.54
2023-05-08T15:40:12.519Z,100568.91
2023-05-08T15:42:45.425Z,100577.27
2023-05-08T15:45:18.499Z,100575.03
2023-05-08T15:47:51.409Z,100579.81
2023-05-08T15:50:24.410Z,100585.05
2023-05-08T15:52:57.259Z,100582.44
2023-05-08T15:55:30.280Z,100591.19
2023-05-08T15:58:03.504Z,100593.80
2023-05-08T16:00:44.517Z,100593.00
2023-05-08T16:03:11.974Z,100592.91
2023-05-08T16:05:45.127Z,100599.39
2023-05-08T16:08:18.706Z,100604.55
2023-05-08T16:10:51.723Z,100606.16
2023-05-08T16:13:24.620Z,100613.47
2023-05-08T16:16:06.481Z,100611.07
2023-05-08T16:18:39.555Z,100611.83
2023-05-08T16:21:13.498Z,100616.18
2023-05-08T16:23:46.457Z,100608.62
2023-05-08T16:26:20.491Z,100610.27
2023-05-08T16:28:53.423Z,100610.18
2023-05-08T16:31:26.413Z,100613.61
2023-05-08T16:33:59.612Z,100617.54
2023-05-08T16:36:32.599Z,100619.77
2023-05-08T16:39:05.450Z,100623.70
2023-05-08T16:41:38.753Z,100628.41
2023-05-08T16:44:11.496Z,100624.89
2023-05-08T16:46:44.744Z,100633.65
2023-05-08T16:49:17.658Z,100630.14
2023-05-08T16:51:50.479Z,100637.08
2023-05-08T16:54:23.450Z,100630.95
2023-05-08T16:56:56.396Z,100632.17
2023-05-08T16:59:29.248Z,100635.59
2023-05-08T17:02:02.307Z,100638.64
2023-05-08T17:04:35.638Z,100638.13
2023-05-08T17:07:08.561Z,100642.14
2023-05-08T17:09:41.785Z,100644.30
2023-05-08T17:12:14.998Z,100653.94
2023-05-08T17:14:48.258Z,100655.25
2023-05-08T17:17:21.153Z,100657.39
2023-05-08T17:19:54.020Z,100652.88
2023-05-08T17:22:26.910Z,100654.10
2023-05-08T17:24:59.725Z,100659.52
2023-05-08T17:27:34.321Z,100666.95
2023-05-08T17:30:10.807Z,100663.95
2023-05-08T17:32:44.552Z,100666.66
2023-05-08T17:35:17.625Z,100674.90
2023-05-08T17:37:51.402Z,100679.34
2023-05-08T17:40:26.293Z,100678.53
2023-05-08T17:43:00.649Z,100679.34
2023-05-08T17:45:34.426Z,100686.30
2023-05-08T17:48:07.725Z,100684.49
2023-05-08T17:50:42.372Z,100687.91
2023-05-08T17:53:15.053Z,100684.41
2023-05-08T17:55:48.662Z,100682.20
2023-05-08T17:58:21.526Z,100686.94
2023-05-08T18:00:55.540Z,100690.45
2023-05-08T18:03:28.483Z,100687.36
2023-05-08T18:06:01.663Z,100689.22
2023-05-08T18:08:36.095Z,100694.97
2023-05-08T18:11:10.804Z,100694.88
2023-05-08T18:13:44.626Z,100702.23
2023-05-08T18:16:21.401Z,100698.22
2023-05-08T18:18:54.241Z,100701.59
2023-05-08T18:21:28.659Z,100704.04
2023-05-08T18:24:01.635Z,100705.59
2023-05-08T18:26:34.625Z,100707.53
2023-05-08T18:29:07.759Z,100709.17
2023-05-08T18:31:40.980Z,100720.70
2023-05-08T18:34:14.072Z,100714.30
2023-05-08T18:36:47.146Z,100714.84
2023-05-08T18:39:20.149Z,100711.62
2023-05-08T18:41:53.158Z,100718.83
2023-05-08T18:44:26.131Z,100722.87
2023-05-08T18:46:58.996Z,100722.45
2023-05-08T18:49:32.084Z,100726.91
2023-05-08T18:52:05.542Z,100727.34
2023-05-08T18:54:38.765Z,100725.28
2023-05-08T18:57:11.849Z,100729.35
2023-05-08T18:59:44.801Z,100728.56
2023-05-08T19:02:17.604Z,100733.52
2023-05-08T19:04:50.304Z,100725.30
2023-05-08T19:07:23.142Z,100719.70
2023-05-08T19:09:57.678Z,100730.39
2023-05-08T19:12:29.782Z,100734.63
2023-05-08T19:15:02.868Z,100731.41
2023-05-08T19:17:38.963Z,100731.32
2023-05-08T19:20:13.845Z,100729.44
2023-05-08T19:22:47.454Z,100731.13
2023-05-08T19:25:20.414Z,100726.23
2023-05-08T19:27:53.396Z,100724.73
2023-05-08T19:30:26.229Z,100728.65
2023-05-08T19:32:59.599Z,100729.86
2023-05-08T19:35:32.814Z,100735.98
2023-05-08T19:38:05.752Z,100736.91
2023-05-08T19:40:52.520Z,100732.89
2023-05-08T19:43:13.572Z,100732.89
2023-05-08T19:45:47.252Z,100729.67
2023-05-08T19:48:20.511Z,100737.94
2023-05-08T19:50:55.006Z,100733.92
2023-05-08T19:53:26.919Z,100729.58
2023-05-08T19:55:59.685Z,100728.69
2023-05-08T19:58:33.157Z,100736.91
2023-05-08T20:01:06.247Z,100740.45
2023-05-08T20:03:39.735Z,100742.14
2023-05-08T20:06:13.148Z,100735.61
2023-05-08T20:08:46.033Z,100741.25
2023-05-08T20:11:19.033Z,100736.72
2023-05-08T20:13:52.098Z,100735.92
2023-05-08T20:16:25.157Z,100735.92
2023-05-08T20:18:58.187Z,100740.13
2023-05-08T20:21:32.641Z,100746.06
2023-05-08T20:24:05.838Z,100741.31
2023-05-08T20:26:39.323Z,100728.14
2023-05-08T20:29:12.937Z,100730.28
2023-05-08T20:31:45.925Z,100737.10
2023-05-08T20:34:21.228Z,100730.98
2023-05-08T20:36:53.463Z,100731.97
2023-05-08T20:39:26.732Z,100733.37
2023-05-08T20:41:59.598Z,100731.27
2023-05-08T20:44:32.502Z,100736.59
2023-05-08T20:47:05.457Z,100725.23
2023-05-08T20:49:38.189Z,100726.45
2023-05-08T20:52:11.066Z,100726.27
2023-05-08T20:54:45.380Z,100725.24
2023-05-08T20:57:18.747Z,100725.66
2023-05-08T20:59:51.740Z,100723.36
2023-05-08T21:02:24.746Z,100722.53
2023-05-08T21:04:57.547Z,100720.94
2023-05-08T21:07:30.724Z,100722.63
2023-05-08T21:10:03.507Z,100722.15
2023-05-08T21:12:36.928Z,100723.55
2023-05-08T21:15:10.632Z,100721.22
2023-05-08T21:17:44.440Z,100715.80
2023-05-08T21:20:17.511Z,100714.81
2023-05-08T21:22:50.495Z,100715.55
2023-05-08T21:25:23.538Z,100722.89
2023-05-08T21:27:56.528Z,100731.63
2023-05-08T21:30:29.477Z,100740.97
2023-05-08T21:33:03.340Z,100742.37
2023-05-08T21:35:36.592Z,100740.55
2023-05-08T21:38:11.344Z,100737.27
2023-05-08T21:40:45.066Z,100737.08
2023-05-08T21:43:17.809Z,100731.56
2023-05-08T21:45:50.661Z,100733.47
2023-05-08T21:48:24.646Z,100729.77
2023-05-08T21:50:57.457Z,100732.39
2023-05-08T21:53:30.286Z,100736.81
2023-05-08T21:56:03.185Z,100730.19
2023-05-08T21:58:36.068Z,100732.98
2023-05-08T22:01:09.090Z,100734.48
2023-05-08T22:03:42.075Z,100734.28
2023-05-08T22:06:14.979Z,100737.73
2023-05-08T22:08:47.716Z,100734.09
2023-05-08T22:11:20.929Z,100735.81
2023-05-08T22:13:53.648Z,100734.09
2023-05-08T22:16:26.787Z,100732.41
2023-05-08T22:18:59.763Z,100729.69
2023-05-08T22:21:33.377Z,100726.66
2023-05-08T22:24:06.697Z,100728.86
2023-05-08T22:26:40.029Z,100726.56
2023-05-08T22:29:12.774Z,100723.66
2023-05-08T22:31:47.657Z,100719.96
2023-05-08T22:34:20.622Z,100729.48
2023-05-08T22:36:53.307Z,100732.52
2023-05-08T22:39:26.570Z,100723.88
2023-05-08T22:42:00.016Z,100725.77
2023-05-08T22:44:32.957Z,100726.69
2023-05-08T22:47:06.116Z,100729.58
2023-05-08T22:49:41.692Z,100733.72
2023-05-08T22:52:14.355Z,100734.13
2023-05-08T22:54:47.168Z,100739.77
2023-05-08T22:57:19.973Z,100746.21
2023-05-08T22:59:52.750Z,100740.78
2023-05-08T23:02:25.557Z,100738.87
2023-05-08T23:04:58.284Z,100735.64
2023-05-08T23:07:31.192Z,100725.61
2023-05-08T23:10:04.170Z,100725.19
2023-05-08T23:12:37.353Z,100717.58
2023-05-08T23:15:11.671Z,100720.98
2023-05-08T23:17:45.626Z,100723.91
2023-05-08T23:20:18.551Z,100723.80
2023-05-08T23:22:51.364Z,100730.66
2023-05-08T23:25:24.416Z,100730.14
2023-05-08T23:27:57.309Z,100732.17
2023-05-08T23:30:30.274Z,100734.17
2023-05-08T23:33:03.246Z,100733.08
2023-05-08T23:35:36.002Z,100729.66
2023-05-08T23:38:08.657Z,100729.55
2023-05-08T23:40:41.395Z,100730.25
2023-05-08T23:43:14.449Z,100730.66
2023-05-08T23:45:47.406Z,100731.17
2023-05-08T23:48:20.296Z,100728.94
2023-05-08T23:50:53.854Z,100734.89
2023-05-08T23:53:26.729Z,100735.58
2023-05-08T23:55:59.420Z,100738.30
2023-05-08T23:58:33.065Z,100743.22
